Time;durP1;ratioP1;P1;durP2;ratioP2;P2;SDS_P1;SDS_P2;PMS_P1;PMS_P2;Temp;Humidity;BMP_temperature;BMP_pressure;BME280_temperature;BME280_humidity;BME280_pressure;Samples;Min_cycle;Max_cycle;Signal;HPM_P1;HPM_P2
2023/04/10 00:01:10;;;;;;;6.40;4.60;;;;;;;;;;5078617;28;20039;-85
2023/04/10 00:03:36;;;;;;;5.75;5.10;;;;;;;;;;5078068;28;20034;-85
2023/04/10 00:06:01;;;;;;;6.35;5.00;;;;;;;;;;5061630;28;20032;-86
2023/04/10 00:08:27;;;;;;;5.47;4.85;;;;;;;;;;5096241;28;20024;-85
2023/04/10 00:10:53;;;;;;;5.97;5.03;;;;;;;;;;5077836;28;20035;-86
2023/04/10 00:13:18;;;;;;;7.10;5.47;;;;;;;;;;5059039;28;20052;-82
2023/04/10 00:15:44;;;;;;;5.88;5.03;;;;;;;;;;5061455;28;20185;-86
2023/04/10 00:18:09;;;;;;;5.82;5.03;;;;;;;;;;5080093;28;20039;-86
2023/04/10 00:20:35;;;;;;;5.63;4.97;;;;;;;;;;5078563;28;20039;-86
2023/04/10 00:23:00;;;;;;;6.65;4.97;;;;;;;;;;5096917;28;20032;-85
2023/04/10 00:25:26;;;;;;;5.65;5.00;;;;;;;;;;5094945;28;20105;-85
2023/04/10 00:27:52;;;;;;;6.25;4.97;;;;;;;;;;5078182;28;20111;-84
2023/04/10 00:30:18;;;;;;;8.55;5.10;;;;;;;;;;5058535;28;20104;-85
2023/04/10 00:32:43;;;;;;;5.95;4.97;;;;;;;;;;5077747;28;20453;-86
2023/04/10 00:35:09;;;;;;;6.65;5.00;;;;;;;;;;5095966;28;20115;-85
2023/04/10 00:37:34;;;;;;;5.78;4.88;;;;;;;;;;5077855;28;20028;-85
2023/04/10 00:40:00;;;;;;;6.43;5.30;;;;;;;;;;5077916;28;20475;-86
2023/04/10 00:42:25;;;;;;;5.53;4.70;;;;;;;;;;5060739;28;20055;-85
2023/04/10 00:44:51;;;;;;;5.70;5.10;;;;;;;;;;5077714;28;20051;-86
2023/04/10 00:47:16;;;;;;;5.47;4.68;;;;;;;;;;5057738;28;20055;-85
2023/04/10 00:49:42;;;;;;;6.38;4.97;;;;;;;;;;5060733;28;20046;-85
2023/04/10 00:52:08;;;;;;;6.15;5.00;;;;;;;;;;5077366;28;20055;-86
2023/04/10 00:54:35;;;;;;;6.43;4.80;;;;;;;;;;5077192;28;20532;-84
2023/04/10 00:57:00;;;;;;;6.57;5.32;;;;;;;;;;5077688;28;20464;-85
2023/04/10 00:59:25;;;;;;;5.88;4.70;;;;;;;;;;5060457;28;20127;-84
2023/04/10 01:01:51;;;;;;;8.48;5.45;;;;;;;;;;5095347;28;20024;-84
2023/04/10 01:04:16;;;;;;;6.13;5.15;;;;;;;;;;5076927;28;20032;-85
2023/04/10 01:07:05;;;;;;;7.70;4.93;;;;;;;;;;5095761;28;20043;-84
2023/04/10 01:09:47;;;;;;;6.43;5.07;;;;;;;;;;5095158;28;20368;-85
2023/04/10 01:12:32;;;;;;;5.55;4.85;;;;;;;;;;5076965;28;20024;-84
2023/04/10 01:15:04;;;;;;;5.65;4.70;;;;;;;;;;5094907;28;20501;-85
2023/04/10 01:17:29;;;;;;;5.53;4.82;;;;;;;;;;5095050;28;20032;-85
2023/04/10 01:20:06;;;;;;;5.03;4.40;;;;;;;;;;5094685;28;20034;-85
2023/04/10 01:22:40;;;;;;;5.47;4.80;;;;;;;;;;5077183;28;20411;-85
2023/04/10 01:25:31;;;;;;;5.47;4.75;;;;;;;;;;5076839;28;20062;-85
2023/04/10 01:28:18;;;;;;;6.38;4.78;;;;;;;;;;5094721;28;20027;-85
2023/04/10 01:30:46;;;;;;;6.53;5.30;;;;;;;;;;5094838;28;20095;-85
2023/04/10 01:33:15;;;;;;;5.57;4.40;;;;;;;;;;5094523;28;20028;-83
2023/04/10 01:35:43;;;;;;;5.82;4.75;;;;;;;;;;5094714;28;20065;-84
2023/04/10 01:38:10;;;;;;;4.78;4.28;;;;;;;;;;5076343;28;20028;-84
2023/04/10 01:40:38;;;;;;;6.03;5.15;;;;;;;;;;5076216;28;20100;-84
2023/04/10 01:43:07;;;;;;;5.13;4.40;;;;;;;;;;5076307;28;20481;-84
2023/04/10 01:45:32;;;;;;;5.25;4.32;;;;;;;;;;5059979;28;20067;-85
2023/04/10 01:47:58;;;;;;;5.85;4.72;;;;;;;;;;5075975;28;20387;-84
2023/04/10 01:50:26;;;;;;;5.57;4.82;;;;;;;;;;5076490;28;20024;-84
2023/04/10 01:52:52;;;;;;;5.65;4.72;;;;;;;;;;5078660;28;20085;-84
2023/04/10 01:55:19;;;;;;;5.47;4.65;;;;;;;;;;5076931;28;20079;-84
2023/04/10 01:57:47;;;;;;;7.00;4.57;;;;;;;;;;5056518;28;20059;-84
2023/04/10 02:00:14;;;;;;;5.30;4.28;;;;;;;;;;5076218;28;20039;-84
2023/04/10 02:02:41;;;;;;;5.85;4.57;;;;;;;;;;5076529;28;20027;-84
2023/04/10 02:05:09;;;;;;;4.30;3.90;;;;;;;;;;5059365;28;20111;-85
2023/04/10 02:07:40;;;;;;;4.93;4.10;;;;;;;;;;5076358;28;20483;-84
2023/04/10 02:10:21;;;;;;;5.30;4.18;;;;;;;;;;5076207;28;20023;-85
2023/04/10 02:12:52;;;;;;;5.20;4.38;;;;;;;;;;5076057;28;20016;-84
2023/04/10 02:15:22;;;;;;;5.80;4.25;;;;;;;;;;5059464;28;20120;-84
2023/04/10 02:17:48;;;;;;;6.28;4.00;;;;;;;;;;5059464;28;20035;-83
2023/04/10 02:20:15;;;;;;;5.60;4.53;;;;;;;;;;5059145;28;20028;-83
2023/04/10 02:22:44;;;;;;;5.22;4.32;;;;;;;;;;5076206;28;20032;-84
2023/04/10 02:25:10;;;;;;;5.20;4.03;;;;;;;;;;5059416;28;20449;-83
2023/04/10 02:27:36;;;;;;;5.22;4.20;;;;;;;;;;5059106;28;20123;-83
2023/04/10 02:30:03;;;;;;;5.55;4.30;;;;;;;;;;5076150;28;20418;-82
2023/04/10 02:32:30;;;;;;;4.63;4.05;;;;;;;;;;5075870;28;20043;-83
2023/04/10 02:34:55;;;;;;;4.35;3.95;;;;;;;;;;5094412;28;20031;-83
2023/04/10 02:37:21;;;;;;;4.30;3.90;;;;;;;;;;5075875;28;20398;-84
2023/04/10 02:39:47;;;;;;;4.35;3.67;;;;;;;;;;5058676;28;20077;-84
2023/04/10 02:42:12;;;;;;;4.63;3.70;;;;;;;;;;5059107;28;20032;-83
2023/04/10 02:44:41;;;;;;;4.57;3.70;;;;;;;;;;5075378;28;20027;-84
2023/04/10 02:47:06;;;;;;;4.00;3.47;;;;;;;;;;5076300;28;20127;-83
2023/04/10 02:49:35;;;;;;;4.15;3.75;;;;;;;;;;5075130;28;20059;-84
2023/04/10 02:52:01;;;;;;;4.75;3.33;;;;;;;;;;5075317;28;20039;-84
2023/04/10 02:54:26;;;;;;;3.90;3.50;;;;;;;;;;5059031;28;20406;-84
2023/04/10 02:56:52;;;;;;;6.80;3.60;;;;;;;;;;5093514;28;20140;-84
2023/04/10 02:59:18;;;;;;;4.75;3.65;;;;;;;;;;5075497;28;20059;-84
2023/04/10 03:01:45;;;;;;;3.78;3.33;;;;;;;;;;5093433;28;20375;-84
2023/04/10 03:04:11;;;;;;;3.72;3.33;;;;;;;;;;5075776;28;20382;-84
2023/04/10 03:06:36;;;;;;;4.10;3.22;;;;;;;;;;5093640;28;20042;-85
2023/04/10 03:09:01;;;;;;;4.07;3.50;;;;;;;;;;5093764;28;20039;-85
2023/04/10 03:11:27;;;;;;;4.43;3.22;;;;;;;;;;5093768;28;20459;-84
2023/04/10 03:13:52;;;;;;;3.30;3.00;;;;;;;;;;5075324;28;20028;-85
2023/04/10 03:16:18;;;;;;;3.72;3.33;;;;;;;;;;5075450;28;20024;-84
2023/04/10 03:18:44;;;;;;;3.70;2.92;;;;;;;;;;5075429;28;20189;-84
2023/04/10 03:21:10;;;;;;;4.28;3.25;;;;;;;;;;5058497;28;20024;-84
2023/04/10 03:23:35;;;;;;;3.03;2.72;;;;;;;;;;5094523;28;20033;-84
2023/04/10 03:26:01;;;;;;;4.05;3.15;;;;;;;;;;5093350;28;20036;-83
2023/04/10 03:28:26;;;;;;;3.25;2.95;;;;;;;;;;5058657;28;20040;-84
2023/04/10 03:30:52;;;;;;;3.13;2.72;;;;;;;;;;5093450;28;20031;-83
2023/04/10 03:33:17;;;;;;;3.55;2.80;;;;;;;;;;5093527;28;20028;-84
2023/04/10 03:35:44;;;;;;;3.25;2.88;;;;;;;;;;5074997;28;20064;-84
2023/04/10 03:38:10;;;;;;;3.10;2.80;;;;;;;;;;5093618;28;20020;-85
2023/04/10 03:40:36;;;;;;;3.42;2.72;;;;;;;;;;5075548;28;20024;-84
2023/04/10 03:43:02;;;;;;;3.35;2.85;;;;;;;;;;5075122;28;20028;-83
2023/04/10 03:45:27;;;;;;;3.97;3.03;;;;;;;;;;5093695;28;20032;-82
2023/04/10 03:47:52;;;;;;;3.25;2.95;;;;;;;;;;5058095;28;20063;-82
2023/04/10 03:50:18;;;;;;;3.80;2.83;;;;;;;;;;5093707;28;20031;-83
2023/04/10 03:52:43;;;;;;;2.90;2.70;;;;;;;;;;5058903;28;20036;-83
2023/04/10 03:55:09;;;;;;;3.03;2.63;;;;;;;;;;5074840;28;20478;-83
2023/04/10 03:57:34;;;;;;;2.90;2.60;;;;;;;;;;5093487;28;20032;-83
2023/04/10 04:00:00;;;;;;;2.95;2.65;;;;;;;;;;5094432;28;20063;-84
2023/04/10 04:02:25;;;;;;;3.05;2.75;;;;;;;;;;5079272;28;20016;-84
2023/04/10 04:04:51;;;;;;;2.75;2.55;;;;;;;;;;5061782;28;20419;-83
2023/04/10 04:07:16;;;;;;;2.80;2.50;;;;;;;;;;5097344;28;20028;-84
2023/04/10 04:09:41;;;;;;;3.45;2.80;;;;;;;;;;5096805;28;20024;-83
2023/04/10 04:12:07;;;;;;;2.92;2.72;;;;;;;;;;5096969;28;20036;-83
2023/04/10 04:14:32;;;;;;;2.83;2.40;;;;;;;;;;5097336;28;20087;-84
2023/04/10 04:16:58;;;;;;;3.42;2.50;;;;;;;;;;5097652;28;20051;-84
2023/04/10 04:19:24;;;;;;;3.33;2.90;;;;;;;;;;5084505;28;20522;-84
2023/04/10 04:21:49;;;;;;;2.70;2.35;;;;;;;;;;5081169;28;20039;-85
2023/04/10 04:24:15;;;;;;;3.25;2.95;;;;;;;;;;5098658;28;20055;-85
2023/04/10 04:26:40;;;;;;;3.10;2.42;;;;;;;;;;5106901;28;20413;-85
2023/04/10 04:29:06;;;;;;;3.50;2.80;;;;;;;;;;5080756;28;20335;-84
2023/04/10 04:31:31;;;;;;;3.15;2.67;;;;;;;;;;5062788;28;20028;-84
2023/04/10 04:33:59;;;;;;;2.63;2.40;;;;;;;;;;5096990;28;20056;-84
2023/04/10 04:36:26;;;;;;;3.22;2.78;;;;;;;;;;5097379;28;20125;-84
2023/04/10 04:38:52;;;;;;;3.50;2.60;;;;;;;;;;5079031;28;20039;-82
2023/04/10 04:41:17;;;;;;;2.63;2.40;;;;;;;;;;5097438;28;20020;-83
2023/04/10 04:43:43;;;;;;;2.83;2.53;;;;;;;;;;5079677;28;20032;-84
2023/04/10 04:46:09;;;;;;;2.60;2.40;;;;;;;;;;5078939;28;20434;-84
2023/04/10 04:48:34;;;;;;;3.15;2.50;;;;;;;;;;5078020;28;20032;-84
2023/04/10 04:51:00;;;;;;;3.40;2.40;;;;;;;;;;5061776;28;20053;-84
2023/04/10 04:53:25;;;;;;;3.88;2.78;;;;;;;;;;5077773;28;20081;-84
2023/04/10 04:55:50;;;;;;;2.75;2.50;;;;;;;;;;5061010;28;20110;-84
2023/04/10 04:58:16;;;;;;;2.50;2.30;;;;;;;;;;5060913;28;20061;-83
2023/04/10 05:00:41;;;;;;;3.10;2.33;;;;;;;;;;5060611;28;20051;-83
2023/04/10 05:03:06;;;;;;;3.05;2.53;;;;;;;;;;5095507;28;20058;-84
2023/04/10 05:05:32;;;;;;;2.63;2.42;;;;;;;;;;5077489;28;20043;-84
2023/04/10 05:07:57;;;;;;;2.38;2.17;;;;;;;;;;5095476;28;20028;-84
2023/04/10 05:10:23;;;;;;;2.70;2.40;;;;;;;;;;5077912;28;20592;-83
2023/04/10 05:12:48;;;;;;;3.83;2.47;;;;;;;;;;5060474;28;20111;-83
2023/04/10 05:15:14;;;;;;;3.08;2.30;;;;;;;;;;5077503;28;20074;-83
2023/04/10 05:17:39;;;;;;;2.65;2.45;;;;;;;;;;5077058;28;20027;-83
2023/04/10 05:20:05;;;;;;;2.47;2.28;;;;;;;;;;5077180;28;20031;-83
2023/04/10 05:22:31;;;;;;;3.20;2.25;;;;;;;;;;5076867;28;20126;-84
2023/04/10 05:24:56;;;;;;;3.60;2.38;;;;;;;;;;5076855;28;20028;-83
2023/04/10 05:27:22;;;;;;;2.50;2.30;;;;;;;;;;5060102;28;20478;-83
2023/04/10 05:29:47;;;;;;;2.38;2.17;;;;;;;;;;5076943;28;20032;-82
2023/04/10 05:32:13;;;;;;;2.63;2.42;;;;;;;;;;5094678;28;20062;-83
2023/04/10 05:34:38;;;;;;;3.22;2.55;;;;;;;;;;5095309;28;20077;-82
2023/04/10 05:37:04;;;;;;;3.00;2.65;;;;;;;;;;5076823;28;20109;-82
2023/04/10 05:39:29;;;;;;;2.58;2.38;;;;;;;;;;5095523;28;20028;-84
2023/04/10 05:41:55;;;;;;;2.60;2.25;;;;;;;;;;5095013;28;20388;-81
2023/04/10 05:44:20;;;;;;;2.53;2.33;;;;;;;;;;5096101;28;20028;-84
2023/04/10 05:46:46;;;;;;;3.17;2.45;;;;;;;;;;5096605;28;20036;-85
2023/04/10 05:49:11;;;;;;;12.88;2.42;;;;;;;;;;5078162;28;20028;-85
2023/04/10 05:51:37;;;;;;;2.70;2.50;;;;;;;;;;5097493;28;20031;-85
2023/04/10 05:54:02;;;;;;;3.00;2.70;;;;;;;;;;5077107;28;20028;-84
2023/04/10 05:56:27;;;;;;;2.90;2.20;;;;;;;;;;5077205;28;20104;-85
2023/04/10 05:58:53;;;;;;;3.67;2.40;;;;;;;;;;5094893;28;20039;-84
2023/04/10 06:01:18;;;;;;;4.05;2.30;;;;;;;;;;5076480;28;20052;-84
2023/04/10 06:03:43;;;;;;;2.72;2.28;;;;;;;;;;5059697;28;20050;-83
2023/04/10 06:06:09;;;;;;;3.45;2.22;;;;;;;;;;5076699;28;20024;-83
2023/04/10 06:08:34;;;;;;;4.57;2.35;;;;;;;;;;5042736;28;20560;-83
2023/04/10 06:10:59;;;;;;;2.78;2.38;;;;;;;;;;5076419;28;20039;-82
2023/04/10 06:13:26;;;;;;;6.03;2.95;;;;;;;;;;5076249;28;20060;-83
2023/04/10 06:15:51;;;;;;;3.17;2.47;;;;;;;;;;5076095;28;20061;-83
2023/04/10 06:18:17;;;;;;;3.83;2.38;;;;;;;;;;5059660;28;20569;-83
2023/04/10 06:20:42;;;;;;;2.67;2.25;;;;;;;;;;5059444;28;20127;-84
2023/04/10 06:23:08;;;;;;;3.60;2.83;;;;;;;;;;5093785;28;20077;-82
2023/04/10 06:25:33;;;;;;;4.88;2.25;;;;;;;;;;5077455;28;20486;-82
2023/04/10 06:27:58;;;;;;;3.15;2.47;;;;;;;;;;5077876;28;20035;-81
2023/04/10 06:30:24;;;;;;;2.28;2.08;;;;;;;;;;5059650;28;20047;-82
2023/04/10 06:32:49;;;;;;;3.42;2.47;;;;;;;;;;5059103;28;20039;-83
2023/04/10 06:35:15;;;;;;;3.70;2.80;;;;;;;;;;5076416;28;20077;-83
2023/04/10 06:37:41;;;;;;;2.92;2.63;;;;;;;;;;5076228;28;20028;-83
2023/04/10 06:40:08;;;;;;;2.63;2.42;;;;;;;;;;5075939;28;20388;-83
2023/04/10 06:42:34;;;;;;;2.90;2.60;;;;;;;;;;5076007;28;20035;-84
2023/04/10 06:44:59;;;;;;;2.90;2.35;;;;;;;;;;5075861;28;20107;-83
2023/04/10 06:47:25;;;;;;;2.55;2.35;;;;;;;;;;5093851;28;20024;-81
2023/04/10 06:49:50;;;;;;;2.40;2.20;;;;;;;;;;5094346;28;20106;-81
2023/04/10 06:52:16;;;;;;;5.03;2.53;;;;;;;;;;5060354;28;20035;-81
2023/04/10 06:54:41;;;;;;;5.50;2.40;;;;;;;;;;5059589;28;20032;-82
2023/04/10 06:57:07;;;;;;;3.22;2.50;;;;;;;;;;5075857;28;20032;-81
2023/04/10 06:59:34;;;;;;;3.45;2.53;;;;;;;;;;5075342;28;20449;-82
2023/04/10 07:02:00;;;;;;;3.55;2.80;;;;;;;;;;5075800;28;20028;-81
2023/04/10 07:04:25;;;;;;;2.65;2.42;;;;;;;;;;5058824;28;20425;-82
2023/04/10 07:06:50;;;;;;;4.28;2.90;;;;;;;;;;5093969;28;20024;-82
2023/04/10 07:09:16;;;;;;;3.72;2.65;;;;;;;;;;5041934;28;20483;-81
2023/04/10 07:11:42;;;;;;;2.90;2.47;;;;;;;;;;5075264;28;20142;-80
2023/04/10 07:14:07;;;;;;;3.72;2.80;;;;;;;;;;5058626;28;20024;-80
2023/04/10 07:16:32;;;;;;;3.72;2.55;;;;;;;;;;5075309;28;20028;-82
2023/04/10 07:18:58;;;;;;;3.20;2.83;;;;;;;;;;5075614;28;20024;-82
2023/04/10 07:21:23;;;;;;;2.55;2.30;;;;;;;;;;5075443;28;20035;-82
2023/04/10 07:23:49;;;;;;;4.63;2.40;;;;;;;;;;5058552;28;20451;-82
2023/04/10 07:26:14;;;;;;;4.20;2.40;;;;;;;;;;5075537;28;20085;-81
2023/04/10 07:28:39;;;;;;;3.20;2.80;;;;;;;;;;5058971;28;20028;-82
2023/04/10 07:31:06;;;;;;;3.80;2.78;;;;;;;;;;5058758;28;20024;-81
2023/04/10 07:33:32;;;;;;;2.63;2.42;;;;;;;;;;5059365;28;20024;-80
2023/04/10 07:35:57;;;;;;;3.20;2.75;;;;;;;;;;5098139;28;20035;-81
2023/04/10 07:38:23;;;;;;;3.08;2.50;;;;;;;;;;5080448;28;20036;-81
2023/04/10 07:40:54;;;;;;;5.45;2.40;;;;;;;;;;5062818;28;20064;-83
2023/04/10 07:43:20;;;;;;;3.40;2.20;;;;;;;;;;5063302;28;20062;-83
2023/04/10 07:45:46;;;;;;;4.25;2.78;;;;;;;;;;5063445;28;20032;-83
2023/04/10 07:48:11;;;;;;;3.13;2.58;;;;;;;;;;5080235;28;20166;-84
2023/04/10 07:50:37;;;;;;;3.15;2.45;;;;;;;;;;5079365;28;20038;-82
2023/04/10 07:53:06;;;;;;;2.70;2.50;;;;;;;;;;5098619;28;20036;-81
2023/04/10 07:55:41;;;;;;;3.50;2.90;;;;;;;;;;5062571;28;20028;-81
2023/04/10 07:58:06;;;;;;;3.05;2.42;;;;;;;;;;5062223;28;20063;-81
2023/04/10 08:00:32;;;;;;;8.80;2.63;;;;;;;;;;5097011;28;20078;-88
2023/04/10 08:02:58;;;;;;;2.72;2.30;;;;;;;;;;5078630;28;20502;-85
2023/04/10 08:05:23;;;;;;;5.13;2.70;;;;;;;;;;5078888;28;20055;-84
2023/04/10 08:07:49;;;;;;;5.15;2.60;;;;;;;;;;5078811;28;20028;-88
2023/04/10 08:10:14;;;;;;;3.53;2.60;;;;;;;;;;5079789;28;20062;-86
2023/04/10 08:12:40;;;;;;;3.47;2.28;;;;;;;;;;5062234;28;20063;-91
2023/04/10 08:15:06;;;;;;;4.13;2.58;;;;;;;;;;5078561;28;20052;-83
2023/04/10 08:17:31;;;;;;;6.82;2.70;;;;;;;;;;5096750;28;20028;-85
2023/04/10 08:19:57;;;;;;;5.47;3.05;;;;;;;;;;5096676;28;20403;-86
2023/04/10 08:22:22;;;;;;;8.70;3.28;;;;;;;;;;5078520;28;20485;-86
2023/04/10 08:24:48;;;;;;;8.95;3.53;;;;;;;;;;5078458;28;20382;-85
2023/04/10 08:27:14;;;;;;;5.22;2.92;;;;;;;;;;5079166;28;20439;-87
2023/04/10 08:29:40;;;;;;;5.60;3.00;;;;;;;;;;5096935;28;20058;-86
2023/04/10 08:32:05;;;;;;;6.45;3.38;;;;;;;;;;5085353;28;20096;-87
2023/04/10 08:34:31;;;;;;;7.25;3.22;;;;;;;;;;5105401;28;20047;-86
2023/04/10 08:36:56;;;;;;;4.88;2.80;;;;;;;;;;5081297;28;20032;-86
2023/04/10 08:39:22;;;;;;;11.05;3.90;;;;;;;;;;5078821;28;20028;-86
2023/04/10 08:41:47;;;;;;;4.40;3.15;;;;;;;;;;5078498;28;20028;-86
2023/04/10 08:44:13;;;;;;;7.13;3.35;;;;;;;;;;5077798;28;20115;-84
2023/04/10 08:46:43;;;;;;;7.95;2.67;;;;;;;;;;5043685;28;20537;-86
2023/04/10 08:49:12;;;;;;;5.38;2.90;;;;;;;;;;5078849;28;20019;-86
2023/04/10 08:51:44;;;;;;;6.78;3.08;;;;;;;;;;5082010;28;20039;-86
2023/04/10 08:54:13;;;;;;;9.13;3.08;;;;;;;;;;5078444;28;20371;-84
2023/04/10 08:56:41;;;;;;;9.38;3.15;;;;;;;;;;5077875;28;20439;-87
2023/04/10 08:59:07;;;;;;;7.35;3.15;;;;;;;;;;5096449;28;20442;-88
2023/04/10 09:01:34;;;;;;;5.95;3.03;;;;;;;;;;5077932;28;20068;-87
2023/04/10 09:04:00;;;;;;;6.72;2.70;;;;;;;;;;5077937;28;20027;-86
2023/04/10 09:06:26;;;;;;;8.27;2.72;;;;;;;;;;5078869;28;20024;-88
2023/04/10 09:08:51;;;;;;;6.95;2.95;;;;;;;;;;5078341;28;20063;-89
2023/04/10 09:11:17;;;;;;;5.10;2.55;;;;;;;;;;5077776;28;20063;-89
2023/04/10 09:13:42;;;;;;;5.53;2.90;;;;;;;;;;5077812;28;20461;-87
2023/04/10 09:16:10;;;;;;;4.70;2.88;;;;;;;;;;5070340;28;20035;-90
2023/04/10 09:18:40;;;;;;;4.43;2.88;;;;;;;;;;5061007;28;20032;-87
2023/04/10 09:21:06;;;;;;;2.63;2.42;;;;;;;;;;5078145;28;20098;-90
2023/04/10 09:23:32;;;;;;;5.95;2.67;;;;;;;;;;5078176;28;20101;-89
2023/04/10 09:25:57;;;;;;;6.07;2.88;;;;;;;;;;5095705;28;20036;-87
2023/04/10 09:28:22;;;;;;;5.40;2.95;;;;;;;;;;5097044;28;20066;-87
2023/04/10 09:30:48;;;;;;;9.75;3.42;;;;;;;;;;5099443;28;20062;-86
2023/04/10 09:33:26;;;;;;;9.63;3.53;;;;;;;;;;5095804;28;20063;-87
2023/04/10 09:35:52;;;;;;;9.52;3.63;;;;;;;;;;5079869;28;20434;-85
2023/04/10 09:38:19;;;;;;;8.15;3.40;;;;;;;;;;5077373;28;20028;-84
2023/04/10 09:40:46;;;;;;;6.30;3.28;;;;;;;;;;5076821;28;20020;-85
2023/04/10 09:43:22;;;;;;;13.60;3.53;;;;;;;;;;5053216;28;20033;-87
2023/04/10 09:45:53;;;;;;;5.05;3.45;;;;;;;;;;5053487;28;20054;-85
2023/04/10 09:48:19;;;;;;;5.95;3.05;;;;;;;;;;5076753;28;20028;-85
2023/04/10 09:50:45;;;;;;;13.35;3.05;;;;;;;;;;5077058;28;20030;-85
2023/04/10 09:53:18;;;;;;;6.95;3.17;;;;;;;;;;5077323;28;20064;-85
2023/04/10 09:55:44;;;;;;;6.40;3.30;;;;;;;;;;5076976;28;20032;-84
2023/04/10 09:58:10;;;;;;;4.50;2.92;;;;;;;;;;5043410;28;20119;-85
2023/04/10 10:00:47;;;;;;;5.63;3.05;;;;;;;;;;5076619;28;20086;-85
2023/04/10 10:03:14;;;;;;;8.02;3.47;;;;;;;;;;5076536;28;20028;-85
2023/04/10 10:05:42;;;;;;;8.27;3.20;;;;;;;;;;5075781;28;20368;-86
2023/04/10 10:08:10;;;;;;;4.28;2.95;;;;;;;;;;5057041;28;20046;-85
2023/04/10 10:10:48;;;;;;;4.45;3.05;;;;;;;;;;5040568;28;20043;-88
2023/04/10 10:13:51;;;;;;;4.22;3.28;;;;;;;;;;5027500;28;20049;-89
2023/04/10 10:16:20;;;;;;;6.82;2.70;;;;;;;;;;5042361;28;20037;-82
2023/04/10 10:19:15;;;;;;;4.57;3.03;;;;;;;;;;5049584;28;20025;-82
2023/04/10 10:21:43;;;;;;;3.85;2.70;;;;;;;;;;5049515;28;20037;-87
2023/04/10 10:24:08;;;;;;;6.53;2.78;;;;;;;;;;5045294;28;20017;-89
2023/04/10 10:26:36;;;;;;;5.68;3.17;;;;;;;;;;5056450;28;20036;-87
2023/04/10 10:29:09;;;;;;;5.28;2.60;;;;;;;;;;5056472;28;20051;-86
2023/04/10 10:31:36;;;;;;;5.55;2.80;;;;;;;;;;5041645;28;20104;-88
2023/04/10 10:34:04;;;;;;;4.15;2.88;;;;;;;;;;5058218;28;20029;-88
2023/04/10 10:36:32;;;;;;;3.92;2.60;;;;;;;;;;5071514;28;20008;-89
2023/04/10 10:39:38;;;;;;;6.82;2.42;;;;;;;;;;5053808;28;20543;-86
2023/04/10 10:42:21;;;;;;;4.28;2.65;;;;;;;;;;5054988;28;20123;-87
2023/04/10 10:44:58;;;;;;;4.85;2.63;;;;;;;;;;5067331;28;20387;-84
2023/04/10 10:47:27;;;;;;;7.32;2.88;;;;;;;;;;5039305;28;20106;-88
2023/04/10 10:50:00;;;;;;;7.00;2.95;;;;;;;;;;5074213;28;20029;-86
2023/04/10 10:52:42;;;;;;;6.97;3.28;;;;;;;;;;5050432;28;20029;-86
2023/04/10 10:55:56;;;;;;;5.20;3.00;;;;;;;;;;5059089;28;20052;-87
2023/04/10 10:58:16;;;;;;;6.13;2.88;;;;;;;;;;5050684;28;20028;-86
2023/04/10 11:01:05;;;;;;;7.60;3.65;;;;;;;;;;5068101;28;20059;-89
2023/04/10 11:03:30;;;;;;;7.07;3.17;;;;;;;;;;5062709;28;20036;-85
2023/04/10 11:05:58;;;;;;;4.78;3.17;;;;;;;;;;5090862;28;20432;-85
2023/04/10 11:08:32;;;;;;;8.43;3.10;;;;;;;;;;5075842;28;20028;-87
2023/04/10 11:11:04;;;;;;;18.40;3.90;;;;;;;;;;5093394;28;20031;-88
2023/04/10 11:13:40;;;;;;;6.55;3.35;;;;;;;;;;5085122;28;20110;-88
2023/04/10 11:16:09;;;;;;;11.95;3.70;;;;;;;;;;5073316;28;20020;-82
2023/04/10 11:18:43;;;;;;;4.00;3.08;;;;;;;;;;5074759;28;20459;-85
2023/04/10 11:21:10;;;;;;;8.90;3.58;;;;;;;;;;5076105;28;20024;-87
2023/04/10 11:23:37;;;;;;;4.93;3.50;;;;;;;;;;5078496;28;20024;-85
2023/04/10 11:26:03;;;;;;;4.22;3.22;;;;;;;;;;5064379;28;20158;-84
2023/04/10 11:28:32;;;;;;;6.38;3.65;;;;;;;;;;5077811;28;20490;-82
2023/04/10 11:31:20;;;;;;;5.60;3.35;;;;;;;;;;5077522;28;20024;-86
2023/04/10 11:34:06;;;;;;;5.78;3.00;;;;;;;;;;5058632;28;20028;-86
2023/04/10 11:36:33;;;;;;;6.68;3.45;;;;;;;;;;5074791;28;20028;-86
2023/04/10 11:39:11;;;;;;;7.35;4.28;;;;;;;;;;5075694;28;20494;-85
2023/04/10 11:41:45;;;;;;;3.75;2.78;;;;;;;;;;5078171;28;20078;-86
2023/04/10 11:44:34;;;;;;;3.45;2.70;;;;;;;;;;5074811;28;20028;-85
2023/04/10 11:46:59;;;;;;;5.90;2.88;;;;;;;;;;5094073;28;20021;-89
2023/04/10 11:49:28;;;;;;;3.63;2.72;;;;;;;;;;5076657;28;20040;-87
2023/04/10 11:51:54;;;;;;;3.55;2.83;;;;;;;;;;5078090;28;20123;-85
2023/04/10 11:54:21;;;;;;;4.72;3.08;;;;;;;;;;5070491;28;20480;-86
2023/04/10 11:57:08;;;;;;;3.20;2.83;;;;;;;;;;5057180;28;20044;-83
2023/04/10 11:59:34;;;;;;;4.93;2.60;;;;;;;;;;5072333;28;20109;-84
2023/04/10 12:02:15;;;;;;;4.18;2.63;;;;;;;;;;5073307;28;20395;-83
2023/04/10 12:04:41;;;;;;;3.60;2.35;;;;;;;;;;5055626;28;20024;-87
2023/04/10 12:07:07;;;;;;;3.50;2.65;;;;;;;;;;5072434;28;20024;-86
2023/04/10 12:09:32;;;;;;;6.38;2.70;;;;;;;;;;5074574;28;20039;-88
2023/04/10 12:12:02;;;;;;;3.95;2.38;;;;;;;;;;5076081;28;20031;-89
2023/04/10 12:14:38;;;;;;;4.57;2.72;;;;;;;;;;5055895;28;20036;-89
2023/04/10 12:17:09;;;;;;;2.95;2.25;;;;;;;;;;5073575;28;20107;-89
2023/04/10 12:19:37;;;;;;;2.30;2.00;;;;;;;;;;5074690;28;20029;-88
2023/04/10 12:22:02;;;;;;;2.55;2.15;;;;;;;;;;5074541;28;20471;-86
2023/04/10 12:24:48;;;;;;;4.20;2.53;;;;;;;;;;5076213;28;20043;-86
2023/04/10 12:27:16;;;;;;;2.80;2.38;;;;;;;;;;5076352;28;20024;-85
2023/04/10 12:29:42;;;;;;;2.53;2.10;;;;;;;;;;5076308;28;20062;-88
2023/04/10 12:32:08;;;;;;;8.75;2.55;;;;;;;;;;5060983;28;20115;-87
2023/04/10 12:34:33;;;;;;;2.58;2.30;;;;;;;;;;5077833;28;20506;-85
2023/04/10 12:36:59;;;;;;;3.03;2.22;;;;;;;;;;5078464;28;20025;-88
2023/04/10 12:39:25;;;;;;;4.00;2.25;;;;;;;;;;5093549;28;20020;-87
2023/04/10 12:41:51;;;;;;;3.67;2.42;;;;;;;;;;5069883;28;20077;-88
2023/04/10 12:44:18;;;;;;;2.50;2.20;;;;;;;;;;5086145;28;20084;-89
2023/04/10 12:46:44;;;;;;;5.30;2.25;;;;;;;;;;5075438;28;20021;-85
2023/04/10 12:49:15;;;;;;;3.53;1.85;;;;;;;;;;5069285;28;20029;-85
2023/04/10 12:51:42;;;;;;;4.85;2.38;;;;;;;;;;5085593;28;20036;-85
2023/04/10 12:54:08;;;;;;;4.53;2.10;;;;;;;;;;5076409;28;20370;-85
2023/04/10 12:56:46;;;;;;;2.30;2.10;;;;;;;;;;5059574;28;20103;-86
2023/04/10 12:59:11;;;;;;;2.25;1.83;;;;;;;;;;5059457;28;20036;-86
2023/04/10 13:01:38;;;;;;;2.63;1.98;;;;;;;;;;5059570;28;20028;-87
2023/04/10 13:04:03;;;;;;;2.15;1.85;;;;;;;;;;5075481;28;20029;-86
2023/04/10 13:06:28;;;;;;;3.65;2.30;;;;;;;;;;5077887;28;20039;-84
2023/04/10 13:08:54;;;;;;;3.03;2.33;;;;;;;;;;5076166;28;20395;-85
2023/04/10 13:11:21;;;;;;;3.95;2.30;;;;;;;;;;5060594;28;20028;-86
2023/04/10 13:13:47;;;;;;;2.33;1.92;;;;;;;;;;5059542;28;20042;-87
2023/04/10 13:16:12;;;;;;;2.03;1.92;;;;;;;;;;5080049;28;20025;-90
2023/04/10 13:18:41;;;;;;;4.40;2.30;;;;;;;;;;5042823;28;20034;-91
2023/04/10 13:21:07;;;;;;;2.00;1.80;;;;;;;;;;5058831;28;20029;-88
2023/04/10 13:23:32;;;;;;;3.72;2.00;;;;;;;;;;5075362;28;20504;-80
2023/04/10 13:25:57;;;;;;;2.53;2.00;;;;;;;;;;5079552;28;20039;-91
2023/04/10 13:28:23;;;;;;;4.05;1.90;;;;;;;;;;5078362;28;20035;-80
2023/04/10 13:30:49;;;;;;;3.28;2.00;;;;;;;;;;5094213;28;20466;-81
2023/04/10 13:33:14;;;;;;;2.80;2.17;;;;;;;;;;5094871;28;20032;-82
2023/04/10 13:35:39;;;;;;;4.80;1.98;;;;;;;;;;5093909;28;20073;-82
2023/04/10 13:38:06;;;;;;;2.33;2.08;;;;;;;;;;5078410;28;20050;-84
2023/04/10 13:40:32;;;;;;;3.47;1.90;;;;;;;;;;5095799;28;20432;-83
2023/04/10 13:42:57;;;;;;;2.53;2.00;;;;;;;;;;5078338;28;20028;-85
2023/04/10 13:45:23;;;;;;;2.40;2.20;;;;;;;;;;5093339;28;20027;-82
2023/04/10 13:47:48;;;;;;;10.55;2.53;;;;;;;;;;5077642;28;20028;-83
2023/04/10 13:50:14;;;;;;;4.15;1.92;;;;;;;;;;5080247;28;20082;-82
2023/04/10 13:52:39;;;;;;;4.57;2.28;;;;;;;;;;5073935;28;20423;-84
2023/04/10 13:55:05;;;;;;;2.55;1.90;;;;;;;;;;5073582;28;20487;-82
2023/04/10 13:57:31;;;;;;;2.95;2.00;;;;;;;;;;5090490;28;20138;-82
2023/04/10 13:59:56;;;;;;;3.60;2.17;;;;;;;;;;5073119;28;20045;-82
2023/04/10 14:02:21;;;;;;;3.13;1.85;;;;;;;;;;5073060;28;20024;-79
2023/04/10 14:04:47;;;;;;;3.40;2.10;;;;;;;;;;5074366;28;20036;-81
2023/04/10 14:07:12;;;;;;;2.92;1.90;;;;;;;;;;5072965;28;20020;-80
2023/04/10 14:09:38;;;;;;;5.10;1.95;;;;;;;;;;5082548;28;20031;-83
2023/04/10 14:12:03;;;;;;;2.47;2.00;;;;;;;;;;5094407;28;20032;-84
2023/04/10 14:14:28;;;;;;;6.28;2.30;;;;;;;;;;5086373;28;20062;-81
2023/04/10 14:16:54;;;;;;;5.22;2.00;;;;;;;;;;5073007;28;20482;-81
2023/04/10 14:19:20;;;;;;;4.35;2.10;;;;;;;;;;5055992;28;20111;-80
2023/04/10 14:21:45;;;;;;;5.05;2.30;;;;;;;;;;5072952;28;20036;-85
2023/04/10 14:24:11;;;;;;;3.00;2.17;;;;;;;;;;5072661;28;20033;-85
2023/04/10 14:26:36;;;;;;;3.35;2.45;;;;;;;;;;5073906;28;20025;-85
2023/04/10 14:29:01;;;;;;;2.80;1.98;;;;;;;;;;5072416;28;20440;-85
2023/04/10 14:31:27;;;;;;;3.35;2.05;;;;;;;;;;5072642;28;20043;-84
2023/04/10 14:33:52;;;;;;;2.40;2.20;;;;;;;;;;5073805;28;20082;-83
2023/04/10 14:36:17;;;;;;;1.92;1.83;;;;;;;;;;5074151;28;20024;-85
2023/04/10 14:38:43;;;;;;;2.88;1.92;;;;;;;;;;5073088;28;20040;-82
2023/04/10 14:41:08;;;;;;;2.22;1.77;;;;;;;;;;5076707;28;20131;-84
2023/04/10 14:43:34;;;;;;;2.78;2.00;;;;;;;;;;5078063;28;20601;-84
2023/04/10 14:45:59;;;;;;;3.45;1.90;;;;;;;;;;5071899;28;20029;-81